Time;durP1;ratioP1;P1;durP2;ratioP2;P2;SDS_P1;SDS_P2;PMS_P1;PMS_P2;Temp;Humidity;BMP_temperature;BMP_pressure;BME280_temperature;BME280_humidity;BME280_pressure;Samples;Min_cycle;Max_cycle;Signal;HPM_P1;HPM_P2
2023/02/10 00:01:55;;;;;;;3.25;2.95;;;19.70;64.00;;;;;;5039632;28;20199;-57
2023/02/10 00:04:21;;;;;;;2.58;2.38;;;19.70;64.10;;;;;;5028539;28;20545;-54
2023/02/10 00:06:48;;;;;;;2.75;2.40;;;19.70;64.20;;;;;;5024326;28;20381;-58
2023/02/10 00:09:15;;;;;;;2.50;2.30;;;19.70;64.40;;;;;;5022707;28;20702;-58
2023/02/10 00:11:59;;;;;;;3.13;2.20;;;19.70;64.30;;;;;;5028691;28;20196;-52
2023/02/10 00:14:27;;;;;;;3.45;2.72;;;19.70;64.30;;;;;;5029221;28;20200;-52
2023/02/10 00:16:55;;;;;;;2.15;1.95;;;19.70;64.40;;;;;;5034649;28;20239;-52
2023/02/10 00:19:23;;;;;;;2.47;2.25;;;19.70;64.40;;;;;;5024314;28;20206;-53
2023/02/10 00:21:50;;;;;;;2.28;2.08;;;19.70;64.50;;;;;;5029784;28;20239;-53
2023/02/10 00:24:17;;;;;;;2.95;2.60;;;19.70;64.50;;;;;;5027361;28;20200;-58
2023/02/10 00:26:45;;;;;;;2.88;2.00;;;19.70;64.50;;;;;;5027176;28;20188;-54
2023/02/10 00:29:12;;;;;;;2.83;2.53;;;19.70;64.50;;;;;;5031325;28;20698;-55
2023/02/10 00:31:39;;;;;;;2.90;2.35;;;19.70;64.50;;;;;;5024063;28;20662;-57
2023/02/10 00:34:05;;;;;;;5.15;2.53;;;19.70;64.60;;;;;;5023521;28;20686;-54
2023/02/10 00:36:32;;;;;;;2.97;2.58;;;19.70;64.50;;;;;;5027201;28;20204;-53
2023/02/10 00:38:59;;;;;;;2.53;2.33;;;19.70;64.60;;;;;;5031266;28;20659;-59
2023/02/10 00:41:25;;;;;;;2.60;2.35;;;19.70;64.50;;;;;;5030518;28;20196;-55
2023/02/10 00:43:54;;;;;;;2.22;2.03;;;19.70;64.50;;;;;;5027950;28;20382;-56
2023/02/10 00:46:22;;;;;;;3.08;2.30;;;19.70;64.60;;;;;;5026201;28;20204;-60
2023/02/10 00:48:49;;;;;;;2.72;2.40;;;19.70;64.50;;;;;;5031092;28;20212;-53
2023/02/10 00:51:17;;;;;;;2.92;2.05;;;19.70;64.50;;;;;;5031560;28;20192;-61
2023/02/10 00:53:45;;;;;;;2.53;2.33;;;19.70;64.50;;;;;;5025682;28;20247;-55
2023/02/10 00:56:12;;;;;;;2.00;1.80;;;19.70;64.50;;;;;;5028925;28;20192;-57
2023/02/10 00:58:39;;;;;;;2.63;2.42;;;19.70;64.60;;;;;;5026820;28;20227;-58
2023/02/10 01:01:07;;;;;;;2.25;2.05;;;19.70;64.50;;;;;;5025964;28;20204;-55
2023/02/10 01:03:34;;;;;;;2.17;1.98;;;19.70;64.50;;;;;;5026665;28;20196;-57
2023/02/10 01:06:01;;;;;;;2.40;2.20;;;19.70;64.50;;;;;;5031486;28;20200;-58
2023/02/10 01:08:28;;;;;;;3.15;2.78;;;19.70;64.50;;;;;;5025347;28;20227;-60
2023/02/10 01:11:00;;;;;;;2.40;2.20;;;19.70;64.50;;;;;;5030120;28;20195;-59
2023/02/10 01:13:27;;;;;;;2.20;2.00;;;19.70;64.50;;;;;;5035096;28;20211;-55
2023/02/10 01:15:54;;;;;;;2.45;2.25;;;19.70;64.50;;;;;;5026256;28;20204;-56
2023/02/10 01:18:22;;;;;;;2.30;2.10;;;19.70;64.50;;;;;;5031609;28;20200;-56
2023/02/10 01:20:49;;;;;;;2.67;2.40;;;19.70;64.50;;;;;;5037834;28;20223;-60
2023/02/10 01:23:16;;;;;;;2.55;1.90;;;19.70;64.50;;;;;;5024225;28;20228;-54
2023/02/10 01:25:42;;;;;;;1.70;1.60;;;19.70;64.50;;;;;;5024274;28;20224;-57
2023/02/10 01:28:09;;;;;;;2.13;1.92;;;19.70;64.50;;;;;;5030280;28;20219;-59
2023/02/10 01:30:36;;;;;;;2.08;1.88;;;19.70;64.50;;;;;;5027192;28;20211;-53
2023/02/10 01:33:03;;;;;;;2.47;2.28;;;19.70;64.50;;;;;;5021084;28;20501;-62
2023/02/10 01:35:32;;;;;;;3.00;2.50;;;19.70;64.50;;;;;;5020352;28;20559;-58
2023/02/10 01:37:58;;;;;;;2.60;2.40;;;19.70;64.40;;;;;;5022750;28;20433;-52
2023/02/10 01:40:26;;;;;;;2.38;2.00;;;19.70;64.40;;;;;;5019342;28;20203;-58
2023/02/10 01:42:53;;;;;;;2.30;2.10;;;19.70;64.40;;;;;;5035339;28;20670;-57
2023/02/10 01:45:23;;;;;;;2.50;2.30;;;19.70;64.50;;;;;;5022000;28;20189;-52
2023/02/10 01:47:52;;;;;;;2.20;2.00;;;19.70;64.30;;;;;;5020717;28;20227;-52
2023/02/10 01:50:21;;;;;;;2.13;1.92;;;19.60;64.30;;;;;;5026677;28;20211;-61
2023/02/10 01:52:50;;;;;;;2.50;1.90;;;19.60;64.30;;;;;;5034183;28;20206;-56
2023/02/10 01:55:21;;;;;;;2.30;1.95;;;19.60;64.30;;;;;;5021565;28;20192;-54
2023/02/10 01:57:53;;;;;;;2.70;2.50;;;19.60;64.20;;;;;;5033353;28;20192;-58
2023/02/10 02:00:21;;;;;;;1.98;1.88;;;19.70;64.30;;;;;;5030333;28;20199;-53
2023/02/10 02:02:49;;;;;;;2.75;2.15;;;19.60;64.20;;;;;;5028772;28;20198;-57
2023/02/10 02:05:22;;;;;;;2.17;1.92;;;19.60;64.20;;;;;;5025682;28;20203;-56
2023/02/10 02:07:51;;;;;;;2.17;1.83;;;19.60;64.20;;;;;;5030145;28;20223;-59
2023/02/10 02:10:18;;;;;;;2.65;2.45;;;19.60;64.20;;;;;;5021431;28;20207;-58
2023/02/10 02:12:53;;;;;;;2.47;2.28;;;19.60;64.20;;;;;;5027997;28;20192;-55
2023/02/10 02:15:27;;;;;;;2.50;2.30;;;19.60;64.20;;;;;;5023604;28;20223;-52
2023/02/10 02:18:00;;;;;;;2.05;1.80;;;19.60;64.20;;;;;;5027468;28;20206;-62
2023/02/10 02:20:48;;;;;;;2.28;1.85;;;19.60;64.20;;;;;;5029272;28;20368;-52
2023/02/10 02:23:39;;;;;;;2.05;1.90;;;19.60;64.20;;;;;;5025319;28;20254;-61
2023/02/10 02:26:31;;;;;;;2.20;2.00;;;19.60;64.20;;;;;;5023498;28;20202;-59
2023/02/10 02:29:12;;;;;;;2.50;2.30;;;19.60;64.20;;;;;;5030231;28;20227;-60
2023/02/10 02:31:58;;;;;;;2.50;2.10;;;19.60;64.20;;;;;;5018792;28;20639;-55
2023/02/10 02:34:33;;;;;;;2.47;2.28;;;19.60;64.20;;;;;;5036594;28;20200;-58
2023/02/10 02:37:04;;;;;;;2.80;2.50;;;19.60;64.20;;;;;;5022483;28;20930;-61
2023/02/10 02:39:32;;;;;;;2.10;1.90;;;19.60;64.20;;;;;;5020828;28;20196;-53
2023/02/10 02:42:15;;;;;;;1.90;1.77;;;19.60;64.20;;;;;;5021680;28;20208;-55
2023/02/10 02:44:43;;;;;;;2.42;1.95;;;19.60;64.20;;;;;;5020529;28;20188;-54
2023/02/10 02:47:19;;;;;;;2.25;1.92;;;19.60;64.20;;;;;;5020989;28;20675;-57
2023/02/10 02:49:51;;;;;;;2.40;2.20;;;19.60;64.20;;;;;;5019574;28;20952;-61
2023/02/10 02:52:23;;;;;;;1.80;1.70;;;19.60;64.20;;;;;;5020518;28;20200;-58
2023/02/10 02:54:58;;;;;;;2.15;1.85;;;19.60;64.20;;;;;;5017406;28;20219;-59
2023/02/10 02:57:34;;;;;;;2.58;2.35;;;19.60;64.20;;;;;;5022353;28;20230;-53
2023/02/10 03:00:06;;;;;;;1.70;1.60;;;19.60;64.10;;;;;;5018993;28;20205;-52
2023/02/10 03:02:36;;;;;;;2.53;2.33;;;19.60;64.10;;;;;;5019999;28;20212;-57
2023/02/10 03:05:04;;;;;;;3.03;2.10;;;19.60;64.10;;;;;;5020431;28;20203;-54
2023/02/10 03:07:31;;;;;;;2.40;2.20;;;19.60;63.60;;;;;;5020862;28;20204;-53
2023/02/10 03:09:58;;;;;;;1.88;1.75;;;19.60;64.10;;;;;;5019854;28;20212;-59
2023/02/10 03:12:24;;;;;;;2.55;1.90;;;19.60;64.10;;;;;;5020714;28;20679;-56
2023/02/10 03:14:51;;;;;;;2.40;2.20;;;19.60;64.10;;;;;;5020650;28;20207;-53
2023/02/10 03:17:18;;;;;;;2.42;2.22;;;19.60;64.10;;;;;;5023132;28;20200;-60
2023/02/10 03:19:46;;;;;;;2.45;2.22;;;19.60;64.20;;;;;;5019365;28;20665;-58
2023/02/10 03:22:13;;;;;;;3.10;2.83;;;19.60;64.10;;;;;;5023062;28;20212;-57
2023/02/10 03:24:39;;;;;;;2.38;2.17;;;19.60;64.10;;;;;;5019256;28;20399;-58
2023/02/10 03:27:06;;;;;;;2.38;2.17;;;19.60;64.10;;;;;;5020516;28;20204;-59
2023/02/10 03:29:33;;;;;;;2.50;2.22;;;19.60;64.10;;;;;;5021413;28;20219;-54
2023/02/10 03:32:01;;;;;;;2.25;2.05;;;19.60;64.10;;;;;;5019403;28;20208;-55
2023/02/10 03:34:28;;;;;;;3.00;2.60;;;19.60;64.10;;;;;;5020555;28;20217;-51
2023/02/10 03:36:56;;;;;;;2.80;2.60;;;19.60;64.00;;;;;;5018951;28;20204;-61
2023/02/10 03:39:23;;;;;;;1.80;1.70;;;19.60;64.00;;;;;;5018441;28;20912;-53
2023/02/10 03:41:50;;;;;;;2.50;2.30;;;19.60;64.00;;;;;;5019687;28;20196;-57
2023/02/10 03:44:17;;;;;;;2.70;2.15;;;19.60;64.00;;;;;;5021286;28;20279;-57
2023/02/10 03:46:43;;;;;;;2.90;2.60;;;19.60;64.00;;;;;;5018780;28;20205;-52
2023/02/10 03:49:10;;;;;;;2.38;2.17;;;19.60;64.00;;;;;;5018526;28;20726;-61
2023/02/10 03:51:37;;;;;;;2.08;1.85;;;19.60;64.00;;;;;;5021236;28;20204;-54
2023/02/10 03:54:05;;;;;;;2.53;2.30;;;19.60;64.00;;;;;;5020243;28;20663;-52
2023/02/10 03:56:32;;;;;;;2.20;2.00;;;19.60;64.00;;;;;;5020871;28;20613;-54
2023/02/10 03:59:01;;;;;;;2.35;2.15;;;19.60;64.00;;;;;;5025448;28;20207;-57
2023/02/10 04:01:28;;;;;;;1.85;1.75;;;19.60;64.00;;;;;;5020537;28;20202;-58
2023/02/10 04:03:54;;;;;;;2.72;2.53;;;19.60;64.00;;;;;;5023363;28;20206;-59
2023/02/10 04:06:21;;;;;;;3.33;2.58;;;19.60;64.00;;;;;;5022780;28;20196;-59
2023/02/10 04:08:48;;;;;;;1.85;1.67;;;19.60;64.00;;;;;;5021165;28;20718;-54
2023/02/10 04:11:16;;;;;;;3.47;2.45;;;19.60;64.00;;;;;;5021857;28;20266;-60
2023/02/10 04:13:43;;;;;;;2.67;2.25;;;19.60;64.00;;;;;;5023229;28;20209;-56
2023/02/10 04:16:11;;;;;;;2.30;2.10;;;19.60;63.90;;;;;;5023329;28;20203;-51
2023/02/10 04:18:38;;;;;;;2.45;2.08;;;19.60;64.00;;;;;;5027384;28;20580;-53
2023/02/10 04:21:06;;;;;;;2.45;2.03;;;19.60;64.00;;;;;;5030268;28;20197;-60
2023/02/10 04:23:33;;;;;;;2.40;2.20;;;19.60;64.00;;;;;;5021707;28;20192;-54
2023/02/10 04:26:00;;;;;;;2.33;1.98;;;19.60;63.90;;;;;;5024028;28;21711;-56
2023/02/10 04:28:28;;;;;;;2.45;2.20;;;19.60;64.00;;;;;;5023410;28;20223;-62
2023/02/10 04:30:56;;;;;;;2.30;2.10;;;19.60;63.90;;;;;;5024039;28;20198;-55
2023/02/10 04:33:24;;;;;;;2.40;2.20;;;19.60;63.90;;;;;;5020614;28;20204;-57
2023/02/10 04:35:51;;;;;;;2.45;2.25;;;19.60;63.90;;;;;;5022624;28;20192;-63
2023/02/10 04:38:19;;;;;;;2.13;1.92;;;19.60;63.90;;;;;;5021071;28;20656;-55
2023/02/10 04:40:45;;;;;;;2.53;1.95;;;19.60;63.90;;;;;;5021890;28;20207;-56
2023/02/10 04:43:13;;;;;;;2.63;2.08;;;19.60;63.90;;;;;;5022254;28;20556;-59
2023/02/10 04:45:42;;;;;;;2.17;1.98;;;19.60;63.90;;;;;;5023532;28;20235;-53
2023/02/10 04:48:09;;;;;;;2.58;2.38;;;19.60;63.90;;;;;;5023996;28;20205;-57
2023/02/10 04:50:37;;;;;;;2.40;2.20;;;19.50;63.80;;;;;;5023297;28;20564;-59
2023/02/10 04:53:04;;;;;;;2.17;2.00;;;19.50;63.80;;;;;;5021693;28;20636;-54
2023/02/10 04:55:30;;;;;;;2.10;2.00;;;19.50;63.80;;;;;;5027556;28;20683;-52
2023/02/10 04:57:57;;;;;;;2.28;2.10;;;19.60;64.00;;;;;;5027700;28;20210;-55
2023/02/10 05:00:24;;;;;;;1.70;1.60;;;19.50;63.80;;;;;;5022974;28;20686;-54
2023/02/10 05:02:52;;;;;;;2.33;2.13;;;19.50;63.80;;;;;;5021874;28;20222;-54
2023/02/10 05:05:19;;;;;;;2.58;2.28;;;19.50;63.70;;;;;;5022078;28;20994;-67
2023/02/10 05:07:46;;;;;;;2.03;1.83;;;19.50;63.80;;;;;;5022056;28;20702;-59
2023/02/10 05:10:12;;;;;;;2.78;2.58;;;19.50;63.80;;;;;;5021044;28;20224;-58
2023/02/10 05:12:39;;;;;;;2.10;1.90;;;19.50;63.80;;;;;;5022165;28;20216;-59
2023/02/10 05:15:07;;;;;;;3.35;3.05;;;19.50;63.80;;;;;;5021735;28;20196;-58
2023/02/10 05:17:34;;;;;;;2.30;2.10;;;19.50;63.80;;;;;;5022659;28;20461;-52
2023/02/10 05:20:02;;;;;;;2.15;1.95;;;19.50;63.80;;;;;;5021598;28;20206;-59
2023/02/10 05:22:29;;;;;;;2.58;2.38;;;19.50;63.80;;;;;;5021446;28;20213;-59
2023/02/10 05:24:56;;;;;;;1.65;1.55;;;19.50;63.70;;;;;;5016611;28;20281;-56
2023/02/10 05:27:23;;;;;;;1.83;1.73;;;19.50;63.10;;;;;;5021020;28;20192;-51
2023/02/10 05:29:50;;;;;;;3.55;1.85;;;19.50;63.70;;;;;;5020668;28;20717;-63
2023/02/10 05:32:16;;;;;;;2.13;1.92;;;19.50;63.70;;;;;;5018904;28;20198;-53
2023/02/10 05:34:43;;;;;;;2.78;2.58;;;19.50;63.70;;;;;;5021784;28;20676;-55
2023/02/10 05:37:11;;;;;;;2.00;1.77;;;19.50;63.70;;;;;;5021611;28;20208;-57
2023/02/10 05:39:38;;;;;;;1.90;1.80;;;19.50;63.70;;;;;;5019621;28;20226;-54
2023/02/10 05:42:05;;;;;;;2.10;1.90;;;19.50;63.70;;;;;;5020544;28;20192;-53
2023/02/10 05:44:32;;;;;;;2.20;2.00;;;19.50;63.70;;;;;;5021777;28;20220;-59
2023/02/10 05:46:59;;;;;;;2.13;1.92;;;19.50;63.70;;;;;;5022463;28;20297;-56
2023/02/10 05:49:26;;;;;;;2.20;2.00;;;19.50;63.70;;;;;;5020954;28;20223;-59
2023/02/10 05:51:52;;;;;;;2.75;2.55;;;19.50;63.70;;;;;;5021446;28;20192;-58
2023/02/10 05:54:21;;;;;;;2.30;2.10;;;19.50;63.70;;;;;;5017981;28;20192;-62
2023/02/10 05:56:49;;;;;;;2.40;2.20;;;19.50;63.70;;;;;;5020778;28;20214;-52
2023/02/10 05:59:16;;;;;;;3.15;2.05;;;19.50;63.60;;;;;;5027287;28;20567;-55
2023/02/10 06:01:43;;;;;;;2.70;2.50;;;19.50;63.60;;;;;;5021037;28;20199;-61
2023/02/10 06:04:10;;;;;;;1.60;1.50;;;19.50;63.70;;;;;;5024748;28;20207;-63
2023/02/10 06:06:36;;;;;;;2.15;1.95;;;19.50;63.60;;;;;;5023610;28;20196;-56
2023/02/10 06:09:03;;;;;;;2.42;2.22;;;19.50;63.60;;;;;;5020705;28;20663;-54
2023/02/10 06:11:31;;;;;;;2.17;2.00;;;19.50;63.60;;;;;;5022764;28;20200;-56
2023/02/10 06:13:58;;;;;;;2.53;2.20;;;19.50;63.60;;;;;;5021659;28;20670;-65
2023/02/10 06:16:25;;;;;;;1.70;1.60;;;19.50;63.60;;;;;;5024515;28;20210;-55
2023/02/10 06:18:52;;;;;;;2.20;2.00;;;19.50;63.60;;;;;;5034928;28;20243;-62
2023/02/10 06:21:19;;;;;;;2.40;2.20;;;19.50;63.60;;;;;;5021695;28;20208;-56
2023/02/10 06:23:45;;;;;;;2.30;2.10;;;19.50;63.70;;;;;;5023226;28;20203;-53
2023/02/10 06:26:12;;;;;;;2.25;2.05;;;19.50;63.60;;;;;;5020810;28;20211;-67
2023/02/10 06:28:40;;;;;;;2.60;2.40;;;19.60;63.70;;;;;;5020478;28;20896;-55
2023/02/10 06:31:08;;;;;;;2.00;1.80;;;19.60;63.70;;;;;;5018500;28;20238;-54
2023/02/10 06:33:35;;;;;;;2.65;2.33;;;19.60;63.70;;;;;;5019607;28;20572;-55
2023/02/10 06:36:03;;;;;;;1.90;1.80;;;19.60;63.70;;;;;;5020803;28;20192;-57
2023/02/10 06:38:30;;;;;;;2.45;2.25;;;19.60;63.70;;;;;;5019351;28;20205;-57
2023/02/10 06:40:57;;;;;;;2.20;2.00;;;19.60;63.70;;;;;;5019025;28;20203;-58
2023/02/10 06:43:23;;;;;;;2.03;1.80;;;19.60;63.70;;;;;;5020675;28;20203;-65
2023/02/10 06:45:51;;;;;;;2.40;2.20;;;19.60;63.70;;;;;;5020553;28;20214;-58
2023/02/10 06:48:18;;;;;;;2.10;1.90;;;19.60;63.70;;;;;;5019069;28;20199;-58
2023/02/10 06:50:45;;;;;;;3.13;2.30;;;19.60;63.70;;;;;;5021437;28;20588;-60
2023/02/10 06:53:11;;;;;;;2.13;1.90;;;19.60;63.70;;;;;;5019223;28;20208;-54
2023/02/10 06:55:38;;;;;;;2.15;2.03;;;19.60;63.70;;;;;;5018985;28;20203;-67
2023/02/10 06:58:05;;;;;;;1.80;1.70;;;19.60;63.70;;;;;;5021517;28;20614;-55
2023/02/10 07:00:32;;;;;;;2.20;2.00;;;19.60;63.70;;;;;;5019807;28;20707;-54
2023/02/10 07:03:00;;;;;;;3.42;2.15;;;19.60;63.70;;;;;;5017924;28;20288;-62
2023/02/10 07:05:27;;;;;;;2.53;2.33;;;19.60;63.70;;;;;;5021887;28;20792;-53
2023/02/10 07:07:54;;;;;;;1.70;1.60;;;19.60;63.70;;;;;;5020519;28;20686;-53
2023/02/10 07:10:21;;;;;;;2.50;2.30;;;19.60;63.70;;;;;;5017700;28;20275;-57
2023/02/10 07:12:48;;;;;;;2.30;1.75;;;19.60;63.70;;;;;;5018999;28;20192;-51
2023/02/10 07:15:16;;;;;;;2.33;2.13;;;19.60;63.70;;;;;;5018815;28;20203;-58
2023/02/10 07:17:43;;;;;;;1.88;1.77;;;19.60;63.70;;;;;;5021981;28;20725;-59
2023/02/10 07:20:12;;;;;;;2.25;1.75;;;19.60;63.70;;;;;;5020466;28;20196;-63
2023/02/10 07:22:39;;;;;;;1.98;1.88;;;19.60;63.70;;;;;;5020074;28;20243;-54
2023/02/10 07:25:06;;;;;;;1.98;1.85;;;19.60;63.70;;;;;;5015648;28;20207;-52
2023/02/10 07:27:32;;;;;;;1.73;1.60;;;19.60;63.70;;;;;;5019558;28;20206;-62
2023/02/10 07:29:59;;;;;;;1.90;1.80;;;19.60;63.70;;;;;;5020221;28;20224;-53
2023/02/10 07:32:26;;;;;;;1.70;1.60;;;19.60;63.70;;;;;;5021077;28;20204;-59
2023/02/10 07:34:53;;;;;;;2.05;1.85;;;19.60;63.70;;;;;;5024293;28;20750;-60
2023/02/10 07:37:21;;;;;;;2.40;2.17;;;19.60;63.70;;;;;;5023338;28;20672;-64
2023/02/10 07:39:47;;;;;;;2.20;2.00;;;19.60;63.70;;;;;;5021681;28;20652;-56
2023/02/10 07:42:14;;;;;;;2.00;1.80;;;19.60;63.70;;;;;;5024492;28;20648;-53
2023/02/10 07:44:41;;;;;;;2.20;2.00;;;19.60;63.70;;;;;;5023422;28;20196;-57
2023/02/10 07:47:07;;;;;;;2.00;1.80;;;19.60;63.70;;;;;;5022523;28;20682;-58
2023/02/10 07:49:34;;;;;;;2.20;2.00;;;19.60;63.70;;;;;;5023088;28;20199;-53
2023/02/10 07:52:01;;;;;;;2.08;1.88;;;19.60;63.70;;;;;;5025222;28;20196;-58
2023/02/10 07:54:29;;;;;;;1.70;1.60;;;19.60;63.70;;;;;;5020487;28;20199;-63
2023/02/10 07:56:58;;;;;;;2.38;2.17;;;19.60;63.60;;;;;;5023988;28;20587;-57
2023/02/10 07:59:25;;;;;;;2.53;2.33;;;19.70;63.70;;;;;;5021923;28;20196;-51
2023/02/10 08:01:51;;;;;;;3.60;2.20;;;19.70;63.80;;;;;;5021875;28;20196;-53
2023/02/10 08:04:18;;;;;;;2.03;1.83;;;19.70;63.70;;;;;;5021282;28;20196;-55
2023/02/10 08:06:45;;;;;;;2.60;1.85;;;19.70;63.70;;;;;;5025705;28;20207;-51
2023/02/10 08:09:11;;;;;;;5.80;2.30;;;19.70;63.70;;;;;;5022186;28;20200;-62
2023/02/10 08:11:39;;;;;;;4.15;2.80;;;19.80;63.90;;;;;;5022863;28;20227;-63
2023/02/10 08:14:06;;;;;;;3.85;2.63;;;19.80;63.90;;;;;;5031060;28;20191;-57
2023/02/10 08:16:33;;;;;;;2.30;2.10;;;19.80;63.90;;;;;;5028095;28;20207;-63
2023/02/10 08:18:59;;;;;;;2.47;2.10;;;19.80;63.90;;;;;;5029485;28;20192;-59
2023/02/10 08:21:26;;;;;;;2.88;2.13;;;19.80;63.90;;;;;;5028849;28;20588;-64
2023/02/10 08:23:56;;;;;;;3.03;2.35;;;19.80;64.00;;;;;;5027359;28;20617;-63
2023/02/10 08:26:23;;;;;;;2.47;2.28;;;19.80;64.90;;;;;;5026393;28;20196;-63
2023/02/10 08:28:54;;;;;;;3.05;2.30;;;19.80;64.20;;;;;;5028618;28;20212;-61
2023/02/10 08:31:21;;;;;;;3.08;2.20;;;19.80;64.30;;;;;;5023993;28;20637;-64
2023/02/10 08:33:48;;;;;;;2.90;2.60;;;19.80;64.20;;;;;;5032364;28;20218;-65
2023/02/10 08:36:17;;;;;;;2.47;2.28;;;19.80;64.30;;;;;;5022239;28;20212;-60
2023/02/10 08:38:45;;;;;;;2.25;2.05;;;19.80;64.30;;;;;;5023458;28;20220;-62
2023/02/10 08:41:11;;;;;;;3.33;3.05;;;19.80;64.30;;;;;;5022866;28;20208;-64
2023/02/10 08:43:38;;;;;;;11.93;3.17;;;19.80;64.30;;;;;;5031414;28;20215;-59
2023/02/10 08:46:06;;;;;;;6.53;2.70;;;19.80;64.30;;;;;;5024052;28;20199;-60
2023/02/10 08:48:34;;;;;;;4.15;2.80;;;19.80;64.20;;;;;;5026229;28;20201;-57
2023/02/10 08:51:01;;;;;;;4.93;3.47;;;19.80;64.10;;;;;;5030416;28;20226;-60
2023/02/10 08:53:29;;;;;;;2.80;2.60;;;19.80;64.10;;;;;;5024937;28;20196;-54
2023/02/10 08:55:57;;;;;;;4.15;2.45;;;19.80;64.90;;;;;;5028111;28;20687;-53
2023/02/10 08:58:24;;;;;;;4.18;3.78;;;19.80;64.10;;;;;;5033966;28;20644;-61
2023/02/10 09:00:50;;;;;;;6.35;2.92;;;19.80;64.20;;;;;;5022507;28;20200;-57
2023/02/10 09:03:19;;;;;;;6.13;4.18;;;19.80;64.20;;;;;;5031449;28;20200;-53
2023/02/10 09:05:48;;;;;;;3.60;3.30;;;19.80;64.30;;;;;;5031989;28;20191;-60
2023/02/10 09:08:16;;;;;;;2.92;2.70;;;19.80;64.40;;;;;;5029390;28;20203;-58
2023/02/10 09:10:43;;;;;;;6.85;3.10;;;19.80;64.40;;;;;;5025678;28;20316;-62
2023/02/10 09:13:09;;;;;;;4.28;3.10;;;19.80;64.50;;;;;;5029499;28;20192;-60
2023/02/10 09:15:38;;;;;;;5.00;3.03;;;19.90;64.60;;;;;;5029356;28;20196;-58
2023/02/10 09:18:05;;;;;;;4.15;3.40;;;19.90;64.50;;;;;;5033096;28;20192;-59
2023/02/10 09:20:34;;;;;;;5.20;3.30;;;19.90;64.50;;;;;;5029406;28;20203;-60
2023/02/10 09:23:00;;;;;;;3.40;3.10;;;19.90;64.50;;;;;;5026902;28;20226;-60
2023/02/10 09:25:27;;;;;;;8.52;3.42;;;19.90;64.50;;;;;;5022432;28;20200;-61
2023/02/10 09:27:57;;;;;;;3.95;3.10;;;19.90;64.50;;;;;;5028051;28;20672;-64
2023/02/10 09:30:24;;;;;;;3.03;2.65;;;19.90;64.50;;;;;;5026982;28;20308;-57
2023/02/10 09:32:51;;;;;;;3.83;2.70;;;19.90;64.50;;;;;;5030786;28;20192;-58
2023/02/10 09:35:18;;;;;;;4.93;3.08;;;19.90;64.50;;;;;;5027251;28;20204;-57
2023/02/10 09:37:46;;;;;;;3.25;2.95;;;19.90;64.60;;;;;;5029924;28;20220;-63
2023/02/10 09:40:17;;;;;;;3.88;2.63;;;19.90;64.60;;;;;;5027225;28;20200;-65
2023/02/10 09:43:07;;;;;;;2.70;2.50;;;19.90;64.60;;;;;;5025519;28;20572;-62
2023/02/10 09:45:37;;;;;;;2.72;2.53;;;19.90;65.40;;;;;;5026299;28;20201;-60
2023/02/10 09:48:19;;;;;;;3.15;2.92;;;19.90;64.60;;;;;;5025362;28;20275;-60
2023/02/10 09:50:52;;;;;;;3.10;2.80;;;19.90;64.60;;;;;;5030576;28;20220;-63
2023/02/10 09:53:22;;;;;;;2.58;2.20;;;19.90;64.60;;;;;;5027509;28;20293;-59
2023/02/10 09:55:51;;;;;;;3.00;2.78;;;19.90;64.60;;;;;;5024302;28;20224;-59
2023/02/10 09:58:25;;;;;;;2.70;2.40;;;19.90;64.60;;;;;;5029272;28;20195;-64
2023/02/10 10:00:57;;;;;;;3.03;2.60;;;19.90;64.60;;;;;;5028086;28;20196;-61
2023/02/10 10:03:28;;;;;;;2.97;2.78;;;19.90;64.60;;;;;;5020209;28;20209;-59
2023/02/10 10:06:05;;;;;;;3.28;2.97;;;19.90;64.60;;;;;;5031665;28;20204;-56
2023/02/10 10:08:41;;;;;;;2.55;2.35;;;19.90;64.60;;;;;;5022484;28;20403;-67
2023/02/10 10:11:22;;;;;;;3.83;3.22;;;19.90;64.60;;;;;;5025242;28;20220;-60
2023/02/10 10:13:49;;;;;;;2.50;2.30;;;19.90;64.70;;;;;;5020943;28;20199;-59
2023/02/10 10:16:26;;;;;;;3.03;2.83;;;19.90;65.50;;;;;;5028595;28;20200;-56
2023/02/10 10:19:04;;;;;;;2.83;2.63;;;19.90;64.60;;;;;;5024320;28;20196;-62
2023/02/10 10:21:42;;;;;;;3.10;2.80;;;19.90;64.60;;;;;;5032323;28;20784;-59
2023/02/10 10:24:26;;;;;;;2.67;2.47;;;19.90;64.70;;;;;;5022851;28;20192;-65
2023/02/10 10:27:07;;;;;;;2.70;2.50;;;19.90;64.60;;;;;;5040396;28;20198;-61
2023/02/10 10:29:43;;;;;;;3.20;2.90;;;19.90;64.60;;;;;;5038051;28;22850;-64
2023/02/10 10:32:15;;;;;;;3.38;2.35;;;19.90;64.60;;;;;;5026852;28;20216;-58
2023/02/10 10:34:51;;;;;;;2.67;2.47;;;19.90;64.60;;;;;;5026414;28;20187;-56
2023/02/10 10:37:23;;;;;;;2.35;2.15;;;19.90;64.70;;;;;;5030235;28;20277;-60
2023/02/10 10:39:54;;;;;;;2.58;2.38;;;19.90;64.70;;;;;;5027018;28;20195;-60
2023/02/10 10:42:29;;;;;;;2.28;2.10;;;19.90;64.70;;;;;;5039178;28;20206;-61
2023/02/10 10:45:00;;;;;;;3.08;2.58;;;19.90;64.90;;;;;;5031678;28;20651;-63
2023/02/10 10:47:37;;;;;;;3.75;2.45;;;19.90;65.70;;;;;;5024756;28;20210;-65
2023/02/10 10:50:04;;;;;;;2.88;2.65;;;19.90;64.90;;;;;;5035827;28;20605;-66
2023/02/10 10:52:35;;;;;;;2.35;2.15;;;19.90;64.80;;;;;;5025858;28;20248;-66
2023/02/10 10:55:09;;;;;;;3.30;2.30;;;19.90;64.90;;;;;;5022600;28;20651;-65
2023/02/10 10:57:36;;;;;;;3.15;2.88;;;19.90;64.90;;;;;;5028946;28;20191;-62
2023/02/10 11:00:14;;;;;;;2.85;2.53;;;19.90;65.00;;;;;;5028949;28;20203;-61
2023/02/10 11:02:51;;;;;;;4.38;2.05;;;19.90;65.00;;;;;;5023949;28;20290;-57
2023/02/10 11:05:20;;;;;;;4.97;2.40;;;20.00;65.20;;;;;;5036042;28;20219;-63
2023/02/10 11:07:49;;;;;;;2.53;2.33;;;20.00;65.20;;;;;;5032876;28;20270;-61
2023/02/10 11:10:26;;;;;;;2.45;2.25;;;20.00;65.30;;;;;;5030768;28;20699;-61
2023/02/10 11:12:54;;;;;;;2.53;2.33;;;20.10;65.40;;;;;;5037028;28;20191;-59
2023/02/10 11:15:35;;;;;;;2.33;2.08;;;20.10;65.40;;;;;;5032550;28;20569;-62
2023/02/10 11:18:05;;;;;;;2.35;2.15;;;20.10;65.50;;;;;;5039781;28;20211;-64
2023/02/10 11:20:34;;;;;;;3.05;2.58;;;20.10;65.50;;;;;;5035545;28;20203;-64
2023/02/10 11:23:04;;;;;;;3.78;1.98;;;20.10;65.60;;;;;;5032700;28;20211;-63
2023/02/10 11:25:35;;;;;;;2.85;2.53;;;20.10;65.70;;;;;;5025769;28;20672;-60
2023/02/10 11:28:04;;;;;;;3.88;2.75;;;20.10;65.90;;;;;;5031659;28;20207;-65
2023/02/10 11:30:33;;;;;;;6.97;2.25;;;20.10;65.90;;;;;;5031575;28;20192;-60
2023/02/10 11:33:01;;;;;;;3.08;2.05;;;20.10;65.90;;;;;;5026323;28;20553;-60
2023/02/10 11:35:30;;;;;;;3.75;2.80;;;20.10;65.90;;;;;;5032278;28;20196;-66
2023/02/10 11:38:00;;;;;;;2.17;1.92;;;20.10;65.90;;;;;;5032404;28;20672;-63
2023/02/10 11:40:29;;;;;;;2.67;2.47;;;20.10;66.00;;;;;;5026697;28;20189;-61
2023/02/10 11:43:00;;;;;;;2.33;2.10;;;20.20;66.10;;;;;;5027811;28;20200;-62
2023/02/10 11:45:29;;;;;;;2.50;2.30;;;20.20;66.20;;;;;;5030840;28;20252;-60
2023/02/10 11:48:04;;;;;;;3.63;2.35;;;20.20;66.10;;;;;;5031262;28;20196;-68
2023/02/10 11:50:33;;;;;;;3.13;2.35;;;20.20;66.10;;;;;;5025259;28;20640;-67
2023/02/10 11:53:00;;;;;;;3.30;2.58;;;20.20;66.10;;;;;;5031461;28;20727;-67
2023/02/10 11:55:38;;;;;;;5.00;2.10;;;20.20;66.10;;;;;;5033865;28;20203;-66
2023/02/10 12:01:17;;;;;;;2.58;2.38;;;20.20;66.30;;;;;;5029362;28;20282;-59
2023/02/10 12:04:01;;;;;;;2.47;2.20;;;20.20;66.30;;;;;;5027521;28;20192;-64
2023/02/10 12:06:35;;;;;;;3.67;2.35;;;20.20;66.20;;;;;;5027471;28;20204;-62
2023/02/10 12:09:10;;;;;;;2.25;2.05;;;20.30;66.40;;;;;;5029170;28;20199;-63
2023/02/10 12:11:47;;;;;;;3.25;1.95;;;20.30;66.40;;;;;;5031839;28;20215;-64
2023/02/10 12:14:31;;;;;;;2.35;1.90;;;20.30;66.50;;;;;;5044213;28;20222;-58
2023/02/10 12:17:06;;;;;;;3.00;2.25;;;20.30;66.50;;;;;;5031334;28;20196;-58
2023/02/10 12:19:40;;;;;;;2.50;2.30;;;20.30;66.50;;;;;;5028442;28;20206;-59
2023/02/10 12:22:17;;;;;;;2.95;2.08;;;20.30;66.50;;;;;;5029766;28;20246;-62
2023/02/10 12:25:08;;;;;;;2.83;2.22;;;20.40;66.80;;;;;;5028061;28;20192;-62
2023/02/10 12:27:47;;;;;;;2.95;2.13;;;20.40;67.50;;;;;;5028196;28;20679;-56
2023/02/10 12:30:27;;;;;;;2.38;2.17;;;20.40;66.70;;;;;;5030608;28;20588;-62
2023/02/10 12:33:05;;;;;;;2.33;2.13;;;20.40;66.70;;;;;;5028099;28;20212;-63
2023/02/10 12:35:43;;;;;;;2.45;2.25;;;20.40;66.70;;;;;;5022287;28;20207;-67
2023/02/10 12:38:27;;;;;;;2.05;1.85;;;20.40;66.80;;;;;;5024094;28;20667;-63
2023/02/10 12:41:03;;;;;;;4.13;2.33;;;20.40;66.80;;;;;;5023296;28;20278;-66
2023/02/10 12:44:06;;;;;;;2.00;1.80;;;20.40;66.90;;;;;;5031939;28;20199;-65
2023/02/10 12:46:41;;;;;;;2.10;1.90;;;20.40;66.90;;;;;;4984549;28;20466;-64
2023/02/10 12:49:17;;;;;;;2.88;2.55;;;20.40;66.90;;;;;;5031403;28;20200;-67
2023/02/10 12:51:58;;;;;;;5.03;2.10;;;20.40;67.00;;;;;;5030174;28;20294;-64
2023/02/10 12:54:31;;;;;;;2.30;2.10;;;20.40;67.90;;;;;;5026300;28;20556;-66
2023/02/10 12:57:01;;;;;;;1.80;1.52;;;20.40;67.00;;;;;;5029962;28;20203;-61
2023/02/10 12:59:34;;;;;;;2.38;2.17;;;20.40;67.00;;;;;;5034316;28;20200;-62
2023/02/10 13:02:07;;;;;;;2.63;2.00;;;20.50;67.10;;;;;;5027268;28;20204;-63
2023/02/10 13:04:37;;;;;;;3.40;1.83;;;20.50;67.20;;;;;;5029863;28;20494;-64